createdAt,value
2019-03-20T00:01:45.689Z,210.63
2019-03-20T00:04:12.176Z,209.75
2019-03-20T00:06:41.394Z,199.23
2019-03-20T00:09:08.008Z,200.32
2019-03-20T00:11:34.543Z,206.97
2019-03-20T00:14:01.252Z,208.60
2019-03-20T00:16:27.546Z,210.57
2019-03-20T00:18:54.062Z,162.32
2019-03-20T00:21:20.455Z,159.32
2019-03-20T00:23:46.797Z,180.75
2019-03-20T00:26:13.303Z,162.40
2019-03-20T00:28:39.799Z,157.43
2019-03-20T00:31:06.370Z,154.57
2019-03-20T00:33:32.768Z,165.05
2019-03-20T00:35:59.362Z,167.32
2019-03-20T00:38:25.892Z,157.40
2019-03-20T00:40:52.306Z,150.20
2019-03-20T00:43:18.800Z,133.50
2019-03-20T00:45:45.206Z,136.88
2019-03-20T00:48:11.503Z,134.65
2019-03-20T00:50:38.346Z,159.48
2019-03-20T00:53:04.857Z,153.97
2019-03-20T00:55:31.656Z,163.50
2019-03-20T00:57:57.959Z,149.55
2019-03-20T01:00:24.946Z,136.60
2019-03-20T01:02:51.747Z,125.00
2019-03-20T01:05:19.745Z,122.37
2019-03-20T01:07:46.128Z,118.55
2019-03-20T01:10:23.437Z,119.57
2019-03-20T01:12:50.328Z,130.55
2019-03-20T01:15:17.081Z,120.60
2019-03-20T01:17:44.388Z,118.85
2019-03-20T01:20:17.491Z,117.55
2019-03-20T01:22:43.877Z,116.90
2019-03-20T01:25:10.566Z,122.60
2019-03-20T01:27:37.098Z,114.97
2019-03-20T01:30:08.501Z,116.12
2019-03-20T01:32:34.924Z,120.13
2019-03-20T01:35:01.425Z,116.45
2019-03-20T01:37:28.039Z,132.07
2019-03-20T01:39:54.428Z,133.82
2019-03-20T01:42:21.135Z,126.15
2019-03-20T01:44:47.725Z,141.10
2019-03-20T01:47:14.158Z,132.82
2019-03-20T01:49:40.595Z,129.30
2019-03-20T01:52:07.191Z,130.27
2019-03-20T01:54:33.819Z,148.43
2019-03-20T01:57:00.374Z,150.05
2019-03-20T01:59:26.775Z,145.20
2019-03-20T02:01:53.383Z,145.90
2019-03-20T02:04:19.776Z,136.52
2019-03-20T02:06:46.312Z,122.42
2019-03-20T02:09:12.703Z,127.15
2019-03-20T02:11:39.509Z,120.00
2019-03-20T02:14:05.942Z,135.85
2019-03-20T02:16:32.518Z,129.68
2019-03-20T02:18:58.815Z,132.45
2019-03-20T02:21:25.552Z,123.20
2019-03-20T02:23:52.039Z,132.32
2019-03-20T02:26:18.448Z,115.28
2019-03-20T02:28:44.955Z,130.00
2019-03-20T02:31:11.486Z,137.68
2019-03-20T02:33:37.871Z,119.57
2019-03-20T02:36:04.441Z,111.97
2019-03-20T02:38:30.828Z,111.80
2019-03-20T02:40:57.227Z,112.52
2019-03-20T02:43:23.985Z,114.97
2019-03-20T02:45:50.500Z,118.87
2019-03-20T02:48:17.027Z,110.63
2019-03-20T02:50:43.460Z,125.33
2019-03-20T02:53:09.790Z,114.08
2019-03-20T02:55:36.803Z,133.90
2019-03-20T02:58:03.739Z,133.15
2019-03-20T03:00:30.323Z,142.18
2019-03-20T03:02:56.715Z,140.73
2019-03-20T03:05:23.441Z,144.17
2019-03-20T03:07:49.828Z,137.07
2019-03-20T03:10:17.002Z,143.22
2019-03-20T03:12:43.727Z,143.20
2019-03-20T03:15:12.167Z,146.18
2019-03-20T03:17:39.137Z,166.30
2019-03-20T03:20:09.672Z,154.38
2019-03-20T03:22:36.127Z,147.85
2019-03-20T03:25:06.730Z,148.43
2019-03-20T03:27:33.376Z,149.40
2019-03-20T03:29:59.896Z,145.50
2019-03-20T03:32:26.601Z,142.10
2019-03-20T03:34:52.986Z,146.98
2019-03-20T03:37:19.840Z,124.50
2019-03-20T03:39:46.369Z,112.10
2019-03-20T03:42:12.973Z,102.45
2019-03-20T03:44:39.609Z,97.02
2019-03-20T03:47:06.002Z,104.38
2019-03-20T03:49:32.298Z,119.75
2019-03-20T03:51:58.856Z,112.55
2019-03-20T03:54:25.468Z,125.12
2019-03-20T03:56:53.024Z,125.55
2019-03-20T03:59:19.331Z,113.37
2019-03-20T04:01:45.837Z,123.65
2019-03-20T04:04:12.258Z,132.03
2019-03-20T04:06:38.955Z,102.10
2019-03-20T04:09:06.160Z,94.50
2019-03-20T04:11:32.556Z,95.38
2019-03-20T04:13:59.600Z,86.87
2019-03-20T04:16:26.140Z,88.90
2019-03-20T04:18:53.067Z,92.25
2019-03-20T04:21:19.918Z,74.03
2019-03-20T04:23:46.435Z,87.50
2019-03-20T04:26:12.822Z,80.92
2019-03-20T04:28:39.167Z,79.53
2019-03-20T04:31:05.588Z,88.60
2019-03-20T04:33:32.690Z,94.87
2019-03-20T04:35:59.162Z,91.75
2019-03-20T04:38:25.595Z,85.85
2019-03-20T04:40:51.911Z,88.62
2019-03-20T04:43:18.450Z,82.72
2019-03-20T04:45:44.957Z,86.80
2019-03-20T04:48:11.594Z,85.62
2019-03-20T04:50:38.102Z,83.65
2019-03-20T04:53:04.873Z,80.45
2019-03-20T04:55:31.359Z,81.30
2019-03-20T04:57:57.801Z,80.53
2019-03-20T05:00:24.229Z,78.37
2019-03-20T05:02:50.752Z,69.30
2019-03-20T05:05:17.339Z,80.47
2019-03-20T05:07:43.862Z,82.42
2019-03-20T05:10:16.456Z,70.65
2019-03-20T05:12:42.983Z,82.78
2019-03-20T05:15:11.782Z,69.92
2019-03-20T05:17:38.621Z,69.07
2019-03-20T05:20:10.416Z,63.48
2019-03-20T05:22:36.934Z,66.07
2019-03-20T05:25:05.068Z,62.08
2019-03-20T05:27:32.016Z,63.42
2019-03-20T05:29:58.874Z,65.10
2019-03-20T05:32:25.368Z,66.75
2019-03-20T05:34:51.807Z,65.17
2019-03-20T05:37:18.287Z,79.10
2019-03-20T05:39:44.799Z,76.95
2019-03-20T05:42:11.314Z,71.25
2019-03-20T05:44:37.883Z,70.57
2019-03-20T05:47:04.384Z,69.22
2019-03-20T05:49:30.916Z,74.65
2019-03-20T05:51:57.486Z,73.05
2019-03-20T05:54:23.873Z,71.25
2019-03-20T05:56:50.475Z,94.65
2019-03-20T05:59:16.979Z,84.97
2019-03-20T06:01:43.409Z,93.03
2019-03-20T06:04:09.933Z,90.20
2019-03-20T06:06:36.535Z,90.25
2019-03-20T06:09:05.850Z,95.85
2019-03-20T06:11:32.256Z,106.63
2019-03-20T06:13:58.680Z,130.32
2019-03-20T06:16:25.379Z,112.92
2019-03-20T06:18:51.903Z,125.90
2019-03-20T06:21:18.570Z,117.93
2019-03-20T06:23:46.747Z,103.38
2019-03-20T06:26:13.158Z,122.02
2019-03-20T06:28:39.934Z,109.65
2019-03-20T06:31:06.507Z,117.22
2019-03-20T06:33:32.991Z,115.52
2019-03-20T06:35:59.320Z,116.10
2019-03-20T06:38:26.063Z,122.65
2019-03-20T06:40:52.497Z,123.47
2019-03-20T06:43:19.241Z,110.78
2019-03-20T06:45:45.872Z,103.17
2019-03-20T06:48:12.363Z,98.97
2019-03-20T06:50:39.075Z,87.92
2019-03-20T06:53:05.511Z,87.20
2019-03-20T06:55:31.834Z,68.35
2019-03-20T06:57:58.539Z,72.30
2019-03-20T07:00:55.293Z,73.42
2019-03-20T07:03:30.232Z,68.00
2019-03-20T07:06:26.638Z,64.03
2019-03-20T07:09:07.827Z,67.97
2019-03-20T07:11:37.966Z,66.60
2019-03-20T07:14:04.502Z,69.87
2019-03-20T07:16:30.928Z,82.12
2019-03-20T07:18:57.474Z,75.55
2019-03-20T07:21:24.062Z,66.45
2019-03-20T07:23:50.655Z,59.93
2019-03-20T07:26:17.099Z,53.33
2019-03-20T07:28:43.979Z,63.83
2019-03-20T07:31:15.375Z,70.92
2019-03-20T07:33:38.711Z,72.80
2019-03-20T07:36:05.360Z,66.67
2019-03-20T07:38:32.100Z,73.15
2019-03-20T07:40:58.739Z,70.42
2019-03-20T07:43:27.004Z,69.55
2019-03-20T07:45:53.552Z,69.80
2019-03-20T07:48:22.521Z,66.35
2019-03-20T07:50:48.397Z,69.25
2019-03-20T07:53:14.906Z,60.25
2019-03-20T07:55:41.519Z,65.87
2019-03-20T07:58:08.025Z,64.40
2019-03-20T08:00:34.911Z,62.75
2019-03-20T08:03:01.325Z,67.78
2019-03-20T08:05:29.392Z,63.52
2019-03-20T08:08:06.429Z,60.58
2019-03-20T08:10:24.620Z,66.25
2019-03-20T08:12:51.120Z,62.73
2019-03-20T08:15:17.772Z,61.85
2019-03-20T08:17:44.856Z,66.37
2019-03-20T08:20:15.794Z,68.72
2019-03-20T08:22:42.195Z,66.55
2019-03-20T08:25:09.136Z,63.45
2019-03-20T08:27:35.570Z,55.63
2019-03-20T08:30:05.080Z,55.28
2019-03-20T08:32:31.551Z,53.73
2019-03-20T08:34:58.183Z,47.95
2019-03-20T08:37:24.718Z,56.08
2019-03-20T08:39:51.252Z,52.35
2019-03-20T08:42:17.942Z,49.27
2019-03-20T08:44:44.608Z,232.43
2019-03-20T08:47:11.192Z,78.52
2019-03-20T08:49:37.801Z,50.40
2019-03-20T08:52:04.222Z,45.98
2019-03-20T08:54:30.618Z,39.55
2019-03-20T08:56:57.307Z,40.67
2019-03-20T08:59:23.895Z,43.00
2019-03-20T09:01:50.399Z,44.05
2019-03-20T09:04:16.814Z,39.50
2019-03-20T09:06:43.346Z,36.77
2019-03-20T09:09:09.857Z,30.65
2019-03-20T09:11:36.335Z,30.45
2019-03-20T09:14:03.587Z,33.55
2019-03-20T09:16:29.963Z,24.90
2019-03-20T09:18:56.387Z,26.48
2019-03-20T09:21:22.961Z,26.20
2019-03-20T09:23:49.390Z,26.33
2019-03-20T09:26:15.715Z,25.65
2019-03-20T09:28:42.161Z,25.55
2019-03-20T09:31:08.903Z,24.12
2019-03-20T09:33:35.315Z,28.95
2019-03-20T09:36:02.159Z,18.35
2019-03-20T09:38:28.558Z,17.27
2019-03-20T09:40:54.886Z,18.02
2019-03-20T09:43:21.276Z,14.15
2019-03-20T09:45:47.823Z,15.70
2019-03-20T09:48:14.347Z,17.02
2019-03-20T09:50:40.843Z,20.65
2019-03-20T09:53:07.516Z,18.37
2019-03-20T09:55:33.936Z,17.77
2019-03-20T09:58:10.920Z,23.90
2019-03-20T10:00:28.945Z,19.67
2019-03-20T10:02:55.478Z,25.05
2019-03-20T10:05:22.445Z,23.05
2019-03-20T10:07:49.092Z,23.90
2019-03-20T10:10:23.730Z,24.63
2019-03-20T10:12:50.578Z,20.12
2019-03-20T10:15:23.720Z,16.23
2019-03-20T10:17:50.199Z,17.37
2019-03-20T10:25:29.528Z,14.55
2019-03-20T10:27:56.695Z,14.98
2019-03-20T10:30:28.006Z,14.50
2019-03-20T10:32:54.502Z,18.02
2019-03-20T10:35:21.488Z,17.25
2019-03-20T10:37:48.186Z,18.48
2019-03-20T10:40:24.856Z,15.38
2019-03-20T10:42:51.602Z,16.40
2019-03-20T10:45:19.265Z,13.35
2019-03-20T10:47:46.509Z,15.30
2019-03-20T10:50:24.823Z,13.98
2019-03-20T10:52:51.562Z,17.10
2019-03-20T10:55:18.202Z,15.38
2019-03-20T10:57:44.858Z,14.75
2019-03-20T11:00:26.741Z,15.70
2019-03-20T11:02:53.578Z,14.53
2019-03-20T11:05:21.139Z,14.70
2019-03-20T11:07:48.288Z,15.43
2019-03-20T11:10:25.355Z,12.13
2019-03-20T11:12:52.516Z,17.70
2019-03-20T11:15:20.496Z,12.25
2019-03-20T11:17:47.336Z,14.55
2019-03-20T11:20:17.764Z,17.07
2019-03-20T11:22:45.727Z,16.90
2019-03-20T11:25:15.182Z,16.27
2019-03-20T11:27:41.866Z,20.45
2019-03-20T11:30:28.267Z,23.87
2019-03-20T11:35:21.852Z,17.40
2019-03-20T11:37:48.691Z,17.27
2019-03-20T11:40:31.512Z,14.03
2019-03-20T11:42:58.045Z,17.27
2019-03-20T11:45:25.199Z,17.80
2019-03-20T11:47:52.422Z,17.30
2019-03-20T11:50:38.957Z,17.95
2019-03-20T11:53:07.022Z,15.23
2019-03-20T11:55:34.332Z,15.13
2019-03-20T11:58:01.014Z,22.95
2019-03-20T12:00:27.963Z,31.62
2019-03-20T12:02:54.596Z,18.05
2019-03-20T12:05:21.235Z,15.70
2019-03-20T12:07:47.798Z,17.23
2019-03-20T12:10:25.264Z,18.35
2019-03-20T12:12:52.106Z,19.17
2019-03-20T12:15:19.054Z,17.55
2019-03-20T12:17:46.101Z,23.85
2019-03-20T12:20:24.208Z,16.48
2019-03-20T12:22:51.970Z,16.73
2019-03-20T12:25:29.258Z,13.60
2019-03-20T12:27:56.408Z,26.25
2019-03-20T12:30:26.998Z,26.35
2019-03-20T12:32:53.878Z,32.38
2019-03-20T12:35:22.031Z,37.15
2019-03-20T12:37:48.792Z,25.88
2019-03-20T12:40:24.630Z,16.02
2019-03-20T12:42:51.799Z,15.35
2019-03-20T12:45:34.613Z,20.12
2019-03-20T12:48:01.565Z,19.05
2019-03-20T12:50:28.610Z,18.57
2019-03-20T12:52:55.654Z,14.85
2019-03-20T12:55:22.275Z,18.27
2019-03-20T12:57:48.828Z,18.90
2019-03-20T13:00:27.420Z,29.25
2019-03-20T13:02:54.289Z,18.95
2019-03-20T13:05:21.232Z,23.07
2019-03-20T13:07:48.386Z,17.55
2019-03-20T13:10:22.087Z,19.10
2019-03-20T13:12:49.540Z,23.42
2019-03-20T13:15:23.340Z,19.37
2019-03-20T13:17:50.807Z,17.52
2019-03-20T13:20:17.749Z,20.12
2019-03-20T13:23:06.303Z,18.67
2019-03-20T13:25:33.040Z,18.20
2019-03-20T13:28:00.093Z,13.48
2019-03-20T13:30:35.206Z,21.02
2019-03-20T13:33:01.770Z,15.78
2019-03-20T13:35:28.605Z,15.03
2019-03-20T13:37:55.247Z,15.00
2019-03-20T13:40:21.881Z,16.45
2019-03-20T13:42:48.523Z,15.45
2019-03-20T13:45:24.001Z,15.00
2019-03-20T13:47:50.498Z,18.87
2019-03-20T13:50:17.035Z,15.78
2019-03-20T13:52:43.777Z,22.87
2019-03-20T13:55:16.360Z,21.07
2019-03-20T13:57:43.808Z,20.10
2019-03-20T14:00:25.397Z,21.50
2019-03-20T14:02:52.241Z,19.30
2019-03-20T14:05:18.872Z,23.20
2019-03-20T14:07:45.869Z,20.37
2019-03-20T14:10:24.953Z,22.70
2019-03-20T14:12:46.267Z,19.73
2019-03-20T14:15:15.404Z,22.73
2019-03-20T14:17:41.818Z,20.43
2019-03-20T14:20:19.018Z,23.55
2019-03-20T14:22:45.846Z,23.47
2019-03-20T14:25:13.379Z,19.07
2019-03-20T14:27:40.334Z,22.55
2019-03-20T14:30:20.892Z,23.10
2019-03-20T14:32:47.627Z,18.50
2019-03-20T14:35:14.573Z,22.00
2019-03-20T14:37:41.519Z,29.23
2019-03-20T14:40:13.216Z,26.70
2019-03-20T14:42:39.710Z,25.17
2019-03-20T14:45:13.002Z,25.55
2019-03-20T14:47:42.269Z,30.08
2019-03-20T14:50:19.383Z,24.55
2019-03-20T14:52:46.127Z,19.50
2019-03-20T14:55:13.994Z,24.90
2019-03-20T14:57:40.732Z,30.68
2019-03-20T15:00:14.642Z,26.42
2019-03-20T15:02:41.379Z,26.77
2019-03-20T15:05:08.329Z,66.87
2019-03-20T15:07:35.068Z,31.95
2019-03-20T15:10:04.199Z,26.10
2019-03-20T15:12:31.029Z,30.27
2019-03-20T15:14:57.455Z,31.73
2019-03-20T15:17:23.975Z,26.87
2019-03-20T15:19:50.608Z,30.43
2019-03-20T15:22:17.146Z,38.95
2019-03-20T15:24:43.784Z,38.33
2019-03-20T15:27:10.333Z,30.68
2019-03-20T15:29:37.264Z,45.28
2019-03-20T15:32:04.214Z,35.73
2019-03-20T15:34:30.844Z,33.88
2019-03-20T15:36:57.487Z,32.20
2019-03-20T15:39:24.057Z,34.90
2019-03-20T15:41:50.754Z,29.42
2019-03-20T15:44:17.290Z,32.67
2019-03-20T15:46:43.933Z,32.35
2019-03-20T15:49:10.579Z,35.00
2019-03-20T15:51:37.208Z,30.10
2019-03-20T15:54:04.151Z,29.57
2019-03-20T15:56:30.790Z,30.92
2019-03-20T15:58:57.530Z,32.90
2019-03-20T16:01:24.574Z,42.15
2019-03-20T16:03:51.420Z,54.33
2019-03-20T16:06:18.364Z,43.45
2019-03-20T16:08:45.109Z,44.58
2019-03-20T16:11:11.961Z,40.67
2019-03-20T16:13:38.401Z,28.07
2019-03-20T16:16:04.926Z,32.70
2019-03-20T16:18:31.451Z,29.42
2019-03-20T16:20:58.091Z,34.13
2019-03-20T16:23:24.824Z,109.75
2019-03-20T16:25:51.467Z,369.90
2019-03-20T16:28:18.207Z,553.27
2019-03-20T16:30:44.946Z,492.48
2019-03-20T16:33:11.586Z,412.45
2019-03-20T16:35:38.327Z,351.37
2019-03-20T16:38:06.990Z,249.30
2019-03-20T16:40:35.591Z,176.10
2019-03-20T16:43:02.437Z,131.75
2019-03-20T16:45:35.175Z,176.40
2019-03-20T16:48:02.001Z,270.55
2019-03-20T16:50:28.762Z,275.43
2019-03-20T16:52:55.819Z,179.87
2019-03-20T16:55:22.987Z,246.37
2019-03-20T16:57:50.278Z,176.63
2019-03-20T17:00:24.052Z,229.43
2019-03-20T17:02:51.001Z,214.12
2019-03-20T17:05:17.946Z,170.28
2019-03-20T17:07:44.584Z,163.85
2019-03-20T17:10:23.994Z,180.15
2019-03-20T17:12:50.552Z,505.50
2019-03-20T17:15:26.416Z,517.63
2019-03-20T17:17:53.151Z,433.35
2019-03-20T17:20:19.683Z,456.78
2019-03-20T17:22:46.230Z,499.08
2019-03-20T17:25:13.609Z,468.90
2019-03-20T17:27:40.014Z,411.88
2019-03-20T17:30:44.735Z,334.20
2019-03-20T17:33:11.382Z,257.18
2019-03-20T17:35:38.109Z,239.15
2019-03-20T17:38:05.066Z,227.22
2019-03-20T17:40:31.998Z,212.55
2019-03-20T17:42:58.645Z,187.77
2019-03-20T17:45:30.549Z,202.43
2019-03-20T17:47:57.383Z,224.05
2019-03-20T17:50:29.190Z,218.65
2019-03-20T17:52:56.129Z,228.62
2019-03-20T17:55:22.863Z,270.25
2019-03-20T17:57:49.531Z,385.98
2019-03-20T18:00:32.450Z,320.40
2019-03-20T18:02:59.188Z,268.37
2019-03-20T18:05:25.968Z,275.25
2019-03-20T18:07:52.467Z,291.25
2019-03-20T18:10:19.212Z,278.67
2019-03-20T18:12:46.165Z,294.93
2019-03-20T18:15:15.863Z,309.48
2019-03-20T18:17:42.599Z,332.65
2019-03-20T18:20:15.182Z,224.15
2019-03-20T18:22:42.123Z,223.07
2019-03-20T18:25:11.022Z,211.70
2019-03-20T18:27:37.654Z,203.75
2019-03-20T18:30:27.224Z,205.55
2019-03-20T18:32:53.756Z,129.87
2019-03-20T18:35:20.812Z,101.20
2019-03-20T18:37:47.450Z,96.10
2019-03-20T18:40:21.454Z,88.37
2019-03-20T18:42:48.366Z,152.12
2019-03-20T18:45:19.923Z,172.13
2019-03-20T18:47:46.555Z,193.40
2019-03-20T18:50:16.541Z,201.70
2019-03-20T18:52:43.419Z,221.20
2019-03-20T18:55:13.704Z,259.15
2019-03-20T18:57:40.007Z,282.35
2019-03-20T19:00:31.427Z,276.95
2019-03-20T19:03:17.193Z,281.93
2019-03-20T19:06:00.317Z,298.25
2019-03-20T19:08:27.255Z,298.50
2019-03-20T19:10:54.060Z,315.20
2019-03-20T19:13:20.734Z,314.72
2019-03-20T19:15:47.235Z,347.98
2019-03-20T19:18:13.843Z,344.62
2019-03-20T19:20:40.404Z,353.90
2019-03-20T19:23:06.908Z,366.38
2019-03-20T19:25:33.217Z,343.77
2019-03-20T19:27:59.848Z,370.07
2019-03-20T19:30:27.095Z,370.63
2019-03-20T19:32:53.639Z,392.07
2019-03-20T19:35:20.850Z,400.10
2019-03-20T19:37:47.596Z,390.50
2019-03-20T19:40:19.520Z,406.10
2019-03-20T19:42:46.489Z,384.73
2019-03-20T19:45:14.687Z,355.87
2019-03-20T19:47:41.179Z,338.23
2019-03-20T19:50:17.304Z,331.85
2019-03-20T19:52:43.800Z,314.38
2019-03-20T19:55:12.747Z,286.18
2019-03-20T19:57:39.151Z,301.25
2019-03-20T20:00:16.864Z,300.40
2019-03-20T20:02:43.593Z,338.85
2019-03-20T20:05:15.872Z,338.48
2019-03-20T20:07:41.771Z,295.80
2019-03-20T20:10:13.759Z,332.00
2019-03-20T20:12:40.269Z,304.13
2019-03-20T20:15:17.389Z,286.25
2019-03-20T20:17:43.996Z,291.02
2019-03-20T20:20:14.856Z,282.30
2019-03-20T20:22:41.277Z,266.98
2019-03-20T20:25:07.815Z,263.00
2019-03-20T20:27:34.496Z,298.40
2019-03-20T20:30:00.987Z,312.27
2019-03-20T20:32:27.620Z,303.27
2019-03-20T20:34:54.118Z,304.70
2019-03-20T20:37:23.489Z,303.50
2019-03-20T20:39:49.981Z,288.55
2019-03-20T20:42:16.372Z,271.13
2019-03-20T20:44:42.860Z,257.65
2019-03-20T20:47:09.798Z,264.93
2019-03-20T20:49:36.339Z,254.38
2019-03-20T20:52:03.037Z,256.57
2019-03-20T20:54:29.468Z,285.95
2019-03-20T20:56:55.959Z,274.37
2019-03-20T20:59:22.987Z,310.90
2019-03-20T21:01:49.394Z,329.63
2019-03-20T21:04:16.164Z,278.58
2019-03-20T21:06:42.551Z,293.48
2019-03-20T21:09:09.236Z,301.80
2019-03-20T21:11:35.655Z,282.40
2019-03-20T21:14:02.131Z,275.07
2019-03-20T21:16:30.855Z,277.52
2019-03-20T21:19:21.626Z,259.25
2019-03-20T21:22:12.242Z,271.45
2019-03-20T21:24:38.676Z,259.40
2019-03-20T21:27:44.347Z,278.73
2019-03-20T21:30:28.726Z,262.08
2019-03-20T21:33:16.607Z,267.10
2019-03-20T21:36:23.597Z,288.35
2019-03-20T21:38:51.437Z,311.35
2019-03-20T21:41:29.529Z,299.77
2019-03-20T21:44:25.964Z,311.98
2019-03-20T21:47:17.307Z,342.45
2019-03-20T21:49:43.830Z,352.07
2019-03-20T21:52:10.219Z,322.20
2019-03-20T21:54:51.522Z,264.12
2019-03-20T21:57:36.156Z,283.80
2019-03-20T22:00:20.216Z,254.07
2019-03-20T22:02:46.659Z,268.60
2019-03-20T22:05:33.678Z,273.35
2019-03-20T22:08:00.064Z,257.15
2019-03-20T22:10:41.923Z,260.90
2019-03-20T22:13:20.254Z,260.85
2019-03-20T22:16:22.635Z,267.90
2019-03-20T22:19:27.742Z,277.22
2019-03-20T22:22:39.705Z,240.62
2019-03-20T22:25:33.300Z,234.10
2019-03-20T22:28:20.094Z,203.70
2019-03-20T22:30:46.951Z,204.78
2019-03-20T22:33:52.188Z,195.05
2019-03-20T22:36:18.804Z,172.87
2019-03-20T22:39:11.967Z,185.85
2019-03-20T22:41:49.845Z,208.17
2019-03-20T22:44:16.499Z,195.10
2019-03-20T22:47:31.809Z,188.50
2019-03-20T22:50:16.062Z,191.40
2019-03-20T22:53:10.891Z,212.25
2019-03-20T22:56:01.355Z,200.93
2019-03-20T22:58:45.709Z,212.32
2019-03-20T23:01:32.884Z,211.55
2019-03-20T23:04:17.592Z,220.65
2019-03-20T23:06:44.090Z,198.82
2019-03-20T23:09:10.827Z,194.25
2019-03-20T23:11:37.753Z,193.40
2019-03-20T23:14:04.291Z,189.03
2019-03-20T23:16:30.779Z,202.03
2019-03-20T23:18:57.364Z,199.27
2019-03-20T23:21:24.070Z,200.97
2019-03-20T23:23:50.694Z,211.57
2019-03-20T23:26:17.079Z,209.65
2019-03-20T23:28:43.747Z,208.23
2019-03-20T23:31:10.708Z,207.52
2019-03-20T23:33:37.231Z,217.25
2019-03-20T23:36:04.390Z,207.00
2019-03-20T23:38:31.084Z,200.62
2019-03-20T23:40:58.178Z,200.50
2019-03-20T23:43:24.755Z,211.00
2019-03-20T23:45:51.155Z,203.62
2019-03-20T23:48:47.174Z,202.00
2019-03-20T23:51:27.492Z,205.57
2019-03-20T23:53:54.701Z,211.90
2019-03-20T23:56:22.986Z,244.90
2019-03-20T23:58:50.005Z,247.58
